CheckWX is a tool to help pilots better visualize weather data.  It is not intended as a substitute for an official pre-flight weather briefing.

20:12:14 UTC

KMCW METAR
Mason City Municipal Airport
Mason City, Iowa, USA
Current

19 mins ago

KMCW 201953Z AUTO 15009KT 10SM OVC110 22/13 A2980 RMK AO2 RAE03 SLP083 P0000 T02170133
Observed
Jun-20 @ 19:53 UTC
Wind
  • 150° at 9 KTS
Visibility
10 SM
Flight Rules
VFR
Cloud Levels
  • Overcast at 11,000' AGL
Temperature
22°C / 72°F
Dewpoint
13°C / 55°F
Humidity
57%
Altimeter
29.8" Hg
Pressure
1009.12 hPa
Current Rain
0.01"
Previous

1 hour ago

KMCW 201853Z AUTO 20007KT 10SM -RA FEW036 OVC090 21/14 A2983 RMK AO2 RAE1756B25 SLP093 P0000 T02060144
Observed
Jun-20 @ 18:53 UTC
Wind
  • 200° at 7 KTS
Visibility
10 SM
Flight Rules
VFR
Conditions
Light Rain
Cloud Levels
  • Few at 3,600' AGL
  • Overcast at 9,000' AGL
Temperature
21°C / 70°F
Dewpoint
14°C / 57°F
Humidity
64%
Altimeter
29.83" Hg
Pressure
1010.12 hPa
Current Rain
0.01"
Previous

2 hours ago

KMCW 201753Z AUTO 17005KT 10SM -RA FEW080 OVC100 21/14 A2980 RMK AO2 RAB43 SLP083 P0000 60000 T02060139 10222 20161 50002
Observed
Jun-20 @ 17:53 UTC
Wind
  • 170° at 5 KTS
Visibility
10 SM
Flight Rules
VFR
Conditions
Light Rain
Cloud Levels
  • Few at 8,000' AGL
  • Overcast at 10,000' AGL
Temperature
21°C / 70°F
Dewpoint
14°C / 57°F
Humidity
64%
Altimeter
29.8" Hg
Pressure
1009.12 hPa
Current Rain
0.01"